Nearby METAR Reports

 

NZAA - Auckland Intl Ar, New Zealand
Distance from station: SW 18km
Updated: 21/04/2021 07:30
Overcast
Overcast
 Wind from WSW
Wind: WSW 6 km/h
Temperature: 16°C
Dew Point: 15°C
Humidity: 94%
Barometer: 1001 hPa
Clouds: Overcast
Visibility: 10 km
Cloud details: Overcast 762 m
2021/04/20 19:30 NZAA 201930Z AUTO 24003KT 9999 OVC025/// 16/15 Q1001 NOSIG
NZWN - Wellington Intl, New Zealand
Distance from station: S 493km
Updated: 21/04/2021 07:30
Partly cloudy
Partly cloudy
 Wind from NNE
Wind: NNE 7 km/h
Temperature: 14°C
Dew Point: 14°C
Humidity: 100%
Barometer: 1001 hPa
Clouds: Partly cloudy
Visibility: 10 km
Cloud details: Partly cloudy 2743 m
2021/04/20 19:30 NZWN 201930Z AUTO 02004KT 9999 SCT090/// 14/14 Q1001 NOSIG
 
NZCH - Christchurch Int, New Zealand
Distance from station: SSW 759km
Updated: 21/04/2021 07:30
Clear
Clear
 Wind from SW
Wind: SW 17 km/h
Temperature: 11°C
Dew Point: 10°C
Humidity: 94%
Barometer: 1003 hPa
Clouds: Clear
Visibility: 10 km
2021/04/20 19:30 NZCH 201930Z AUTO 23009KT 9999 NCD 11/10 Q1003 NOSIG
YSNF - Norfolk Island A, Australia
Distance from station: NW 1091km
Updated: 21/04/2021 07:30
Partly cloudy
Partly cloudy
 Wind from WSW
Wind: WSW 28 km/h
Temperature: 20°C
Dew Point: 15°C
Humidity: 73%
Barometer: 1013 hPa
Clouds: Partly cloudy
Visibility: 10 km
Cloud details: Partly cloudy 823 m
2021/04/20 19:30 YSNF 201930Z AUTO 25015KT 9999 // SCT027 20/15 Q1013 RF00.0/000.0